• Join FlightAware (Why Join?)
  • Login
  • US Flag 
06:19AM EDT


 

Airport Tracker/Info


-or-


 

Live Flight TrackerFlight Track Log ✈ LYM752 ✈ 2013년 Oct 15일 ✈ KDEN - KGJT

Flight Track Log - Related Links

Times and Time Zones

All times are in EDT time to prevent confusion due to time zone crossing. See the LYM752 flight status page for this flight to view local times or setup timezone preferences in your user account.

Time Position Orientation Groundspeed Altitude Reporting Facility
EDT Latitude Longitude Course Direction KTS MPH feet Rate Location/Type
07:31AM 39.8667 -104.6833 247° West 137 158 7,100  Level Denver TRACON
07:32AM 39.8500 -104.7333 247° West 149 171 8,000 900 Climbing Denver TRACON
07:33AM 39.8333 -104.7667 237° Southwest 118 136 8,900 840 Climbing Denver TRACON
07:34AM 39.8300 -104.7950 261° West 120 138 9,400 780 Climbing Denver Center
07:35AM 39.8250 -104.8372 261° West 118 136 10,200 660 Climbing Denver Center
07:36AM 39.8197 -104.8792 261° West 117 135 10,800 540 Climbing Denver Center
07:37AM 39.8128 -104.9233 258° West 125 144 11,300 600 Climbing Denver Center
07:38AM 39.8031 -104.9661 254° West 124 143 12,100 660 Climbing Denver Center
07:39AM 39.7919 -105.0078 251° West 123 142 12,700 540 Climbing Denver Center
07:40AM 39.7833 -105.0506 255° West 121 139 13,300 600 Climbing Denver Center
07:41AM 39.7747 -105.0919 255° West 120 138 13,900 540 Climbing Denver Center
07:42AM 39.7683 -105.1319 258° West 112 129 14,400 600 Climbing Denver Center
07:43AM 39.7608 -105.1739 257° West 117 135 15,100 540 Climbing Denver Center
07:44AM 39.7556 -105.2153 261° West 116 133 15,600 480 Climbing Denver Center
07:45AM 39.7475 -105.2561 256° West 116 133 16,100 540 Climbing Denver Center
07:46AM 39.7406 -105.2969 258° West 116 133 16,700 420 Climbing Denver Center
07:47AM 39.7336 -105.3378 258° West 116 133 17,000 420 Climbing Denver Center
07:48AM 39.7261 -105.3786 257° West 117 135 17,600 360 Climbing Denver Center
07:49AM 39.7178 -105.4208 256° West 120 138 17,800 120 Climbing Denver Center
07:50AM 39.7078 -105.4650 254° West 127 146 17,900 60 Climbing Denver Center
07:51AM 39.6986 -105.5172 257° West 147 169 18,000  Climbing Denver Center
07:52AM 39.6900 -105.5703 258° West 150 173 18,000 -60 Level Denver Center
07:53AM 39.6822 -105.6233 259° West 150 173 17,900  Descending Denver Center
07:54AM 39.6692 -105.6769 252° West 155 178 18,000  Climbing Denver Center
07:55AM 39.6603 -105.7344 259° West 162 186 18,000  Level Denver Center
07:56AM 39.6492 -105.7906 256° West 163 188 18,000 -60 Level Denver Center
07:57AM 39.6411 -105.8422 259° West 159 183 17,900 -60 Descending Denver Center
07:58AM 39.6322 -105.8994 259° West 161 185 17,900  Level Denver Center
07:59AM 39.6208 -105.9556 255° West 161 185 17,900  Level Denver Center
08:00AM 39.6108 -106.0119 257° West 160 184 17,900  Level Denver Center
08:01AM 39.6025 -106.0678 259° West 160 184 17,900  Level Denver Center
08:02AM 39.5908 -106.1322 257° West 160 184 18,000  Climbing Denver Center
08:03AM 39.5811 -106.1875 257° West 158 182 17,900  Descending Denver Center
08:04AM 39.5719 -106.2447 258° West 161 185 18,000  Climbing Denver Center
08:05AM 39.5608 -106.3014 256° West 161 185 18,000  Level Denver Center
08:06AM 39.5483 -106.3578 254° West 163 188 18,000  Level Denver Center
08:07AM 39.5364 -106.4153 255° West 164 189 18,000  Level Denver Center
08:08AM 39.5264 -106.4736 257° West 166 191 18,000  Level Denver Center
08:09AM 39.5161 -106.5281 256° West 166 191 18,000  Level Denver Center
08:10AM 39.5039 -106.5942 257° West 169 194 18,000  Level Denver Center
08:11AM 39.4944 -106.6506 258° West 168 193 18,000 -60 Level Denver Center
08:12AM 39.4839 -106.7067 256° West 167 192 17,900 -60 Descending Denver Center
08:13AM 39.4714 -106.7742 257° West 171 197 17,900  Level Denver Center
08:14AM 39.4600 -106.8308 255° West 172 198 17,900  Level Denver Center
08:15AM 39.4500 -106.8867 257° West 172 198 17,900  Level Denver Center
08:16AM 39.4381 -106.9431 255° West 168 193 18,000  Climbing Denver Center
08:17AM 39.4250 -107.0089 256° West 170 196 18,000  Level Denver Center
08:18AM 39.4144 -107.0661 257° West 171 197 18,000 -60 Level Denver Center
08:19AM 39.4033 -107.1194 255° West 173 199 17,900 -60 Descending Denver Center
08:20AM 39.3919 -107.1800 256° West 173 199 17,900  Level Denver Center
08:21AM 39.3772 -107.2483 254° West 172 198 17,900  Level Denver Center
08:22AM 39.3658 -107.3058 256° West 171 197 17,900  Level Denver Center
08:23AM 39.3536 -107.3728 257° West 171 197 17,900  Level Denver Center
08:24AM 39.3414 -107.4297 255° West 171 197 17,900  Level Denver Center
08:25AM 39.3331 -107.4889 260° West 173 199 18,000 -300 Climbing Denver Center
08:26AM 39.3200 -107.5594 257° West 183 211 17,400 -600 Descending Denver Center
08:27AM 39.3081 -107.6256 257° West 195 224 16,900 -600 Descending Denver Center
08:28AM 39.2964 -107.6919 257° West 197 227 16,300 -720 Descending Denver Center
08:29AM 39.2822 -107.7706 257° West 200 230 15,500 -600 Descending Denver Center
08:30AM 39.2683 -107.8364 255° West 200 230 15,100 -300 Descending Denver Center
08:31AM 39.2556 -107.8975 255° West 190 219 15,000 -120 Descending Denver Center
08:32AM 39.2442 -107.9628 257° West 175 201 14,900 -180 Descending Denver Center
08:33AM 39.2325 -108.0217 256° West 172 198 14,700 -540 Descending Denver Center
08:34AM 39.2181 -108.0875 254° West 190 219 13,900 -780 Descending Denver Center
08:35AM 39.2014 -108.1642 254° West 206 237 13,200 -900 Descending Denver Center
08:36AM 39.1850 -108.2339 253° West 205 236 12,100 -1,200 Descending Denver Center
08:37AM 39.1672 -108.3081 253° West 216 249 10,800 -1,380 Descending Denver Center
08:38AM 39.1525 -108.3817 256° West 230 265 9,400 -1,080 Descending Denver Center
08:39AM 39.1442 -108.4592 262° West 205 236 8,700 -780 Descending Denver Center
08:40AM 39.1661 -108.5108 299° West 167 192 7,900 -1,140 Descending Denver Center
08:41AM 39.1750 -108.5694 281° West 168 193 6,400 -1,380 Descending Denver Center
08:42AM 39.1419 -108.5567 163° South 146 168 5,200 -840 Descending Denver Center
08:43AM 39.1283 -108.5328 126° Southeast 105 121 4,800 -240 Descending Denver Center
08:44AM 39.1181 -108.5253 150° Southeast 83 96 4,800  Level Denver Center